TimeAKDT,TemperatureF,Dew PointF,Humidity,Sea Level PressureIn,VisibilityMPH,Wind Direction,Wind SpeedMPH,Gust SpeedMPH,PrecipitationIn,Events,Conditions,WindDirDegrees,DateUTC
12:24 AM,44.6,42.8,93,29.93,10.0,WSW,24.2,29.9,N/A,,Overcast,250,2013-07-29 08:24:00
12:56 AM,43.9,43.0,97,29.95,9.0,WSW,20.7,-,N/A,,Overcast,250,2013-07-29 08:56:00
1:56 AM,41.9,41.0,97,29.98,10.0,West,23.0,-,N/A,,Overcast,260,2013-07-29 09:56:00
2:56 AM,39.9,38.8,96,30.00,5.0,West,21.9,-,N/A,,Overcast,270,2013-07-29 10:56:00
3:56 AM,39.9,38.8,96,30.02,5.0,West,19.6,-,N/A,,Overcast,270,2013-07-29 11:56:00
4:56 AM,38.8,37.9,97,30.04,4.0,West,18.4,-,N/A,,Overcast,260,2013-07-29 12:56:00
5:56 AM,39.9,37.9,93,30.06,7.0,West,16.1,-,N/A,,Overcast,270,2013-07-29 13:56:00
6:56 AM,38.8,37.9,97,30.07,8.0,West,13.8,-,N/A,,Overcast,260,2013-07-29 14:56:00
7:44 AM,39.2,39.2,100,30.07,2.5,West,12.7,-,N/A,,Overcast,270,2013-07-29 15:44:00
7:56 AM,38.8,37.9,97,30.09,2.0,West,11.5,-,N/A,,Overcast,280,2013-07-29 15:56:00
8:05 AM,39.2,39.2,100,30.08,1.8,West,11.5,-,N/A,,Overcast,270,2013-07-29 16:05:00
8:11 AM,39.2,37.4,93,30.08,3.0,West,12.7,-,N/A,,Overcast,280,2013-07-29 16:11:00
8:35 AM,39.2,39.2,100,30.09,2.5,West,11.5,-,N/A,,Overcast,280,2013-07-29 16:35:00
8:56 AM,39.9,38.8,96,30.10,2.0,West,11.5,-,N/A,,Overcast,260,2013-07-29 16:56:00
9:07 AM,39.2,39.2,100,30.10,7.0,WSW,9.2,-,N/A,,Overcast,250,2013-07-29 17:07:00
9:35 AM,39.2,39.2,100,30.10,1.8,West,9.2,-,N/A,,Overcast,270,2013-07-29 17:35:00
9:42 AM,39.2,39.2,100,30.10,3.0,West,10.4,-,N/A,,Overcast,260,2013-07-29 17:42:00
9:56 AM,39.9,37.9,93,30.12,10.0,WSW,9.2,-,N/A,,Overcast,240,2013-07-29 17:56:00
10:07 AM,39.2,37.4,93,30.11,10.0,WSW,9.2,-,N/A,,Overcast,250,2013-07-29 18:07:00
10:33 AM,39.2,39.2,100,30.11,2.5,West,8.1,-,N/A,,Overcast,260,2013-07-29 18:33:00
10:41 AM,39.2,37.4,93,30.12,10.0,West,8.1,-,N/A,,Overcast,260,2013-07-29 18:41:00
10:56 AM,39.9,38.8,96,30.13,10.0,SW,6.9,-,N/A,,Overcast,230,2013-07-29 18:56:00
11:45 AM,41.0,39.2,93,30.13,2.5,SW,5.8,-,N/A,,Overcast,230,2013-07-29 19:45:00
11:47 AM,41.0,39.2,93,30.13,3.0,SW,5.8,-,N/A,,Overcast,230,2013-07-29 19:47:00
11:56 AM,41.0,38.8,92,30.14,9.0,Variable,4.6,-,N/A,,Overcast,0,2013-07-29 19:56:00
12:08 PM,41.0,39.2,93,30.13,1.8,WSW,3.5,-,N/A,,Overcast,240,2013-07-29 20:08:00
12:10 PM,41.0,39.2,93,30.13,1.0,Calm,Calm,-,N/A,,Overcast,0,2013-07-29 20:10:00
12:18 PM,41.0,39.2,93,30.13,2.0,WSW,6.9,-,N/A,,Overcast,250,2013-07-29 20:18:00
12:25 PM,41.0,39.2,93,30.13,4.0,West,5.8,-,N/A,,Overcast,260,2013-07-29 20:25:00
12:56 PM,41.0,39.2,93,30.13,10.0,WSW,4.6,-,N/A,,Overcast,240,2013-07-29 20:56:00
1:04 PM,42.8,39.2,87,30.13,10.0,Calm,Calm,-,N/A,,Mostly Cloudy,0,2013-07-29 21:04:00
1:56 PM,43.0,41.0,93,30.15,9.0,Calm,Calm,-,N/A,,Overcast,0,2013-07-29 21:56:00
2:31 PM,46.4,42.8,87,30.13,10.0,Calm,Calm,-,N/A,,Mostly Cloudy,0,2013-07-29 22:31:00
2:56 PM,46.9,41.9,83,30.14,10.0,South,5.8,-,N/A,,Clear,190,2013-07-29 22:56:00
3:56 PM,48.2,44.6,87,30.13,10.0,Calm,Calm,-,N/A,,Scattered Clouds,0,2013-07-29 23:56:00
4:56 PM,52.0,45.0,77,30.14,10.0,Calm,Calm,-,N/A,,Mostly Cloudy,0,2013-07-30 00:56:00
5:56 PM,52.0,48.9,89,30.13,4.0,SSE,5.8,-,N/A,,Overcast,160,2013-07-30 01:56:00
6:05 PM,51.8,48.2,88,30.12,4.0,Calm,Calm,-,N/A,,Overcast,0,2013-07-30 02:05:00
6:12 PM,51.8,50.0,94,30.12,3.0,SSE,4.6,-,N/A,,Overcast,150,2013-07-30 02:12:00
6:56 PM,53.6,51.8,94,30.11,1.5,Calm,Calm,-,N/A,Rain,Light Rain,0,2013-07-30 02:56:00
7:16 PM,53.6,51.8,94,30.11,3.0,Calm,Calm,-,0.00,Rain,Light Rain,0,2013-07-30 03:16:00
7:37 PM,53.6,51.8,94,30.11,2.5,SSE,6.9,-,0.00,Rain,Light Rain,160,2013-07-30 03:37:00
7:46 PM,53.6,51.8,94,30.11,6.0,South,8.1,-,0.00,,Overcast,170,2013-07-30 03:46:00
7:56 PM,54.0,52.0,93,30.12,8.0,South,10.4,-,0.00,,Overcast,170,2013-07-30 03:56:00
8:20 PM,53.6,51.8,94,30.10,10.0,SSW,12.7,-,N/A,,Overcast,200,2013-07-30 04:20:00
8:56 PM,54.0,50.0,86,30.11,10.0,SSW,10.4,-,N/A,,Overcast,200,2013-07-30 04:56:00
9:39 PM,53.6,50.0,88,30.09,10.0,SSW,12.7,-,N/A,,Overcast,200,2013-07-30 05:39:00
9:56 PM,53.6,48.2,82,30.09,10.0,SSW,11.5,-,N/A,,Scattered Clouds,210,2013-07-30 05:56:00
10:56 PM,52.9,50.0,90,30.09,10.0,SSW,9.2,-,N/A,,Mostly Cloudy,200,2013-07-30 06:56:00
11:56 PM,52.9,50.0,90,30.08,10.0,SSW,11.5,-,N/A,,Overcast,210,2013-07-30 07:56:00